createdAt,value
2022-12-31T00:00:46.861Z,91.73
2022-12-31T00:04:39.569Z,91.75
2022-12-31T00:08:32.258Z,91.31
2022-12-31T00:12:25.648Z,91.72
2022-12-31T00:16:31.833Z,91.96
2022-12-31T00:20:24.383Z,91.52
2022-12-31T00:24:17.118Z,91.76
2022-12-31T00:28:09.913Z,91.59
2022-12-31T00:32:02.555Z,91.78
2022-12-31T00:35:55.083Z,92.02
2022-12-31T00:39:47.827Z,92.11
2022-12-31T00:43:40.759Z,92.08
2022-12-31T00:47:33.300Z,92.13
2022-12-31T00:51:30.271Z,91.88
2022-12-31T00:55:23.042Z,92.21
2022-12-31T00:59:15.616Z,92.42
2022-12-31T01:03:08.620Z,92.47
2022-12-31T01:07:01.341Z,92.39
2022-12-31T01:11:14.901Z,92.40
2022-12-31T01:15:07.964Z,92.07
2022-12-31T01:19:04.559Z,92.43
2022-12-31T01:22:57.349Z,92.64
2022-12-31T01:26:51.296Z,92.04
2022-12-31T01:30:44.143Z,92.08
2022-12-31T01:34:36.703Z,92.04
2022-12-31T01:38:29.473Z,91.88
2022-12-31T01:42:22.272Z,92.06
2022-12-31T01:46:23.855Z,92.12
2022-12-31T01:50:24.525Z,92.56
2022-12-31T01:54:19.347Z,92.90
2022-12-31T01:58:20.456Z,92.88
2022-12-31T02:02:15.706Z,92.62
2022-12-31T02:06:17.329Z,92.57
2022-12-31T02:10:10.286Z,93.17
2022-12-31T02:14:08.524Z,93.01
2022-12-31T02:18:27.227Z,92.80
2022-12-31T02:22:54.024Z,93.08
2022-12-31T02:26:57.830Z,93.28
2022-12-31T02:30:54.500Z,93.38
2022-12-31T02:35:10.011Z,93.21
2022-12-31T02:39:05.739Z,93.28
2022-12-31T02:42:58.532Z,93.78
2022-12-31T02:47:01.165Z,93.44
2022-12-31T02:51:33.622Z,93.48
2022-12-31T02:56:04.235Z,93.56
2022-12-31T03:00:20.239Z,93.30
2022-12-31T03:04:32.864Z,93.85
2022-12-31T03:08:26.704Z,94.03
2022-12-31T03:12:40.926Z,93.67
2022-12-31T03:16:35.157Z,93.63
2022-12-31T03:20:53.205Z,93.31
2022-12-31T03:25:04.279Z,93.24
2022-12-31T03:28:56.891Z,93.34
2022-12-31T03:32:50.853Z,93.37
2022-12-31T03:36:43.307Z,93.12
2022-12-31T03:40:42.657Z,93.41
2022-12-31T03:44:35.444Z,93.16
2022-12-31T03:48:28.622Z,93.11
2022-12-31T03:52:22.102Z,93.53
2022-12-31T03:56:14.702Z,93.43
2022-12-31T04:00:09.837Z,93.82
2022-12-31T04:04:03.088Z,94.09
2022-12-31T04:07:56.787Z,93.57
2022-12-31T04:11:49.440Z,93.68
2022-12-31T04:15:42.138Z,93.57
2022-12-31T04:19:34.712Z,93.80
2022-12-31T04:23:27.420Z,93.62
2022-12-31T04:27:19.971Z,93.55
2022-12-31T04:31:12.761Z,93.77
2022-12-31T04:35:05.781Z,93.68
2022-12-31T04:38:58.713Z,94.28
2022-12-31T04:42:51.463Z,93.85
2022-12-31T04:46:44.115Z,93.89
2022-12-31T04:50:37.003Z,93.75
2022-12-31T04:54:29.703Z,94.02
2022-12-31T04:58:22.816Z,93.67
2022-12-31T05:02:15.625Z,93.82
2022-12-31T05:06:12.223Z,93.67
2022-12-31T05:10:05.214Z,94.05
2022-12-31T05:13:58.016Z,93.63
2022-12-31T05:17:50.973Z,93.96
2022-12-31T05:21:43.676Z,93.69
2022-12-31T05:25:36.727Z,93.27
2022-12-31T05:29:29.394Z,93.74
2022-12-31T05:33:23.215Z,93.69
2022-12-31T05:37:16.078Z,93.97
2022-12-31T05:41:08.814Z,93.58
2022-12-31T05:45:01.511Z,93.59
2022-12-31T05:48:54.222Z,93.65
2022-12-31T05:52:47.731Z,93.71
2022-12-31T05:56:40.461Z,93.47
2022-12-31T06:00:33.154Z,93.59
2022-12-31T06:04:25.849Z,93.25
2022-12-31T06:08:18.676Z,93.37
2022-12-31T06:12:11.476Z,93.78
2022-12-31T06:16:08.353Z,93.96
2022-12-31T06:20:01.337Z,93.69
2022-12-31T06:23:54.190Z,93.61
2022-12-31T06:27:46.982Z,93.26
2022-12-31T06:31:39.736Z,92.95
2022-12-31T06:35:32.228Z,93.04
2022-12-31T06:39:25.661Z,93.26
2022-12-31T06:43:18.806Z,93.65
2022-12-31T06:47:11.341Z,93.47
2022-12-31T06:51:16.586Z,93.74
2022-12-31T06:55:10.688Z,93.49
2022-12-31T06:59:04.493Z,93.34
2022-12-31T07:03:28.749Z,92.93
2022-12-31T07:07:30.419Z,92.98
2022-12-31T07:11:52.903Z,93.36
2022-12-31T07:15:48.178Z,93.51
2022-12-31T07:19:48.201Z,93.64
2022-12-31T07:23:43.265Z,93.71
2022-12-31T07:27:50.599Z,94.03
2022-12-31T07:32:02.541Z,93.91
2022-12-31T07:36:01.228Z,93.56
2022-12-31T07:40:22.663Z,93.97
2022-12-31T07:44:43.262Z,93.94
2022-12-31T07:48:36.081Z,93.83
2022-12-31T07:52:29.288Z,93.53
2022-12-31T07:56:21.957Z,93.91
2022-12-31T08:00:15.896Z,93.62
2022-12-31T08:04:37.637Z,93.42
2022-12-31T08:08:45.231Z,93.62
2022-12-31T08:12:40.557Z,93.07
2022-12-31T08:16:33.580Z,93.20
2022-12-31T08:20:27.330Z,93.12
2022-12-31T08:24:39.911Z,92.95
2022-12-31T08:28:53.764Z,92.82
2022-12-31T08:32:52.437Z,92.95
2022-12-31T08:37:03.516Z,92.60
2022-12-31T08:41:18.136Z,93.07
2022-12-31T08:45:27.482Z,92.48
2022-12-31T08:49:20.676Z,92.87
2022-12-31T08:53:13.441Z,93.05
2022-12-31T08:57:35.204Z,92.72
2022-12-31T09:01:33.521Z,91.99
2022-12-31T09:05:47.492Z,91.41
2022-12-31T09:10:16.792Z,91.64
2022-12-31T09:14:33.181Z,91.14
2022-12-31T09:18:32.888Z,90.69
2022-12-31T09:22:26.878Z,90.75
2022-12-31T09:26:43.226Z,90.42
2022-12-31T09:30:50.948Z,90.40
2022-12-31T09:34:53.107Z,90.52
2022-12-31T09:39:16.862Z,89.98
2022-12-31T09:43:26.537Z,89.49
2022-12-31T09:47:34.205Z,89.91
2022-12-31T09:51:30.739Z,89.99
2022-12-31T09:56:04.808Z,89.65
2022-12-31T10:00:00.512Z,89.21
2022-12-31T10:04:02.272Z,89.16
2022-12-31T10:08:19.504Z,89.73
2022-12-31T10:12:27.269Z,89.66
2022-12-31T10:16:25.155Z,89.47
2022-12-31T10:20:59.667Z,89.01
2022-12-31T10:24:58.553Z,88.41
2022-12-31T10:29:28.760Z,88.49
2022-12-31T10:34:02.716Z,88.86
2022-12-31T10:38:06.697Z,88.39
2022-12-31T10:42:29.404Z,88.71
2022-12-31T10:46:51.601Z,88.60
2022-12-31T10:51:20.642Z,89.19
2022-12-31T10:55:42.466Z,89.20
2022-12-31T10:59:59.184Z,89.30
2022-12-31T11:04:14.973Z,88.97
2022-12-31T11:08:10.813Z,88.85
2022-12-31T11:12:37.548Z,88.61
2022-12-31T11:16:37.582Z,88.59
2022-12-31T11:20:56.292Z,88.68
2022-12-31T11:25:06.222Z,88.46
2022-12-31T11:29:02.282Z,88.22
2022-12-31T11:33:32.892Z,88.24
2022-12-31T11:37:47.039Z,88.27
2022-12-31T11:41:53.972Z,87.60
2022-12-31T11:46:21.255Z,88.35
2022-12-31T11:50:15.583Z,88.20
2022-12-31T11:54:30.082Z,88.14
2022-12-31T11:58:28.732Z,88.04
2022-12-31T12:02:32.685Z,88.22
2022-12-31T12:06:31.272Z,87.54
2022-12-31T12:10:36.069Z,87.95
2022-12-31T12:14:37.205Z,87.85
2022-12-31T12:18:37.139Z,88.22
2022-12-31T12:22:31.989Z,88.32
2022-12-31T12:26:28.459Z,88.58
2022-12-31T12:30:25.123Z,88.29
2022-12-31T12:34:40.890Z,88.26
2022-12-31T12:38:36.545Z,88.44
2022-12-31T12:42:30.575Z,88.30
2022-12-31T12:46:54.589Z,88.36
2022-12-31T12:50:49.194Z,88.45
2022-12-31T12:55:09.361Z,88.59
2022-12-31T12:59:34.984Z,88.43
2022-12-31T13:03:41.734Z,88.35
2022-12-31T13:08:05.382Z,88.29
2022-12-31T13:12:15.190Z,88.12
2022-12-31T13:16:31.681Z,88.10
2022-12-31T13:20:36.788Z,88.28
2022-12-31T13:25:00.935Z,88.31
2022-12-31T13:28:54.580Z,88.34
2022-12-31T13:32:56.214Z,88.73
2022-12-31T13:36:51.929Z,88.36
2022-12-31T13:41:05.047Z,87.77
2022-12-31T13:45:04.367Z,88.09
2022-12-31T13:49:01.397Z,88.61
2022-12-31T13:53:03.584Z,88.98
2022-12-31T13:57:01.014Z,88.31
2022-12-31T14:01:03.323Z,88.52
2022-12-31T14:05:19.727Z,88.84
2022-12-31T14:09:22.137Z,89.01
2022-12-31T14:13:36.763Z,89.19
2022-12-31T14:17:39.322Z,89.08
2022-12-31T14:22:00.186Z,89.31
2022-12-31T14:25:55.992Z,89.38
2022-12-31T14:30:05.051Z,89.78
2022-12-31T14:34:08.249Z,89.55
2022-12-31T14:38:38.801Z,89.79
2022-12-31T14:43:10.146Z,89.60
2022-12-31T14:47:17.772Z,89.77
2022-12-31T14:51:12.535Z,89.85
2022-12-31T14:55:28.718Z,89.35
2022-12-31T14:59:27.755Z,89.22
2022-12-31T15:03:34.852Z,88.98
2022-12-31T15:07:47.908Z,89.67
2022-12-31T15:12:12.312Z,89.94
2022-12-31T15:16:20.752Z,89.66
2022-12-31T15:20:35.626Z,89.38
2022-12-31T15:24:30.876Z,89.79
2022-12-31T15:28:44.209Z,90.04
2022-12-31T15:32:41.375Z,90.12
2022-12-31T15:36:38.244Z,89.88
2022-12-31T15:40:31.232Z,89.91
2022-12-31T15:44:24.263Z,90.43
2022-12-31T15:48:22.218Z,90.60
2022-12-31T15:52:22.459Z,90.22
2022-12-31T15:56:39.616Z,90.21
2022-12-31T16:01:10.446Z,90.37
2022-12-31T16:05:03.473Z,89.95
2022-12-31T16:08:56.769Z,90.06
2022-12-31T16:12:49.991Z,89.46
2022-12-31T16:16:53.548Z,89.89
2022-12-31T16:20:48.622Z,89.83
2022-12-31T16:25:02.697Z,89.90
2022-12-31T16:29:00.186Z,90.20
2022-12-31T16:32:56.000Z,90.33
2022-12-31T16:37:02.951Z,90.14
2022-12-31T16:41:02.127Z,90.04
2022-12-31T16:44:56.695Z,90.00
2022-12-31T16:48:57.435Z,89.96
2022-12-31T16:52:55.981Z,90.19
2022-12-31T16:56:48.912Z,90.44
2022-12-31T17:00:43.219Z,90.32
2022-12-31T17:04:38.740Z,89.90
2022-12-31T17:08:40.103Z,90.66
2022-12-31T17:13:00.681Z,90.69
2022-12-31T17:17:07.762Z,90.38
2022-12-31T17:21:08.218Z,90.33
2022-12-31T17:25:15.160Z,89.96
2022-12-31T17:29:22.734Z,90.47
2022-12-31T17:33:21.878Z,90.75
2022-12-31T17:37:23.609Z,91.20
2022-12-31T17:41:21.668Z,91.04
2022-12-31T17:45:22.498Z,91.08
2022-12-31T17:49:15.392Z,91.22
2022-12-31T17:53:13.076Z,91.51
2022-12-31T17:57:06.543Z,91.42
2022-12-31T18:00:59.503Z,91.44
2022-12-31T18:04:53.293Z,91.29
2022-12-31T18:08:46.079Z,91.14
2022-12-31T18:12:39.202Z,91.29
2022-12-31T18:16:32.010Z,90.82
2022-12-31T18:20:25.206Z,91.47
2022-12-31T18:24:25.778Z,90.98
2022-12-31T18:28:18.712Z,91.40
2022-12-31T18:32:27.008Z,91.56
2022-12-31T18:36:21.266Z,91.20
2022-12-31T18:40:14.134Z,91.24
2022-12-31T18:44:07.236Z,90.62
2022-12-31T18:47:59.989Z,91.04
2022-12-31T18:51:54.403Z,91.29
2022-12-31T18:55:48.875Z,91.34
2022-12-31T18:59:41.643Z,91.58
2022-12-31T19:03:35.194Z,91.53
2022-12-31T19:07:27.917Z,91.73
2022-12-31T19:11:21.817Z,91.61
2022-12-31T19:15:33.511Z,91.30
2022-12-31T19:19:26.533Z,91.40
2022-12-31T19:23:22.415Z,91.66
2022-12-31T19:27:15.676Z,92.25
2022-12-31T19:31:08.649Z,91.99
2022-12-31T19:35:01.458Z,92.00
2022-12-31T19:38:54.065Z,91.65
2022-12-31T19:42:46.807Z,91.61
2022-12-31T19:46:39.212Z,92.60
2022-12-31T19:50:32.118Z,92.84
2022-12-31T19:54:24.673Z,92.12
2022-12-31T19:58:27.436Z,92.36
2022-12-31T20:02:20.355Z,92.41
2022-12-31T20:06:13.627Z,92.25
2022-12-31T20:10:07.424Z,92.14
2022-12-31T20:14:00.095Z,92.17
2022-12-31T20:17:52.842Z,92.06
2022-12-31T20:21:45.618Z,92.11
2022-12-31T20:25:38.275Z,92.49
2022-12-31T20:29:31.139Z,92.75
2022-12-31T20:33:23.966Z,92.75
2022-12-31T20:37:16.557Z,91.80
2022-12-31T20:41:10.293Z,92.35
2022-12-31T20:45:04.437Z,92.61
2022-12-31T20:49:00.094Z,92.31
2022-12-31T20:52:52.921Z,92.26
2022-12-31T20:56:45.720Z,92.57
2022-12-31T21:00:38.587Z,93.05
2022-12-31T21:04:31.657Z,92.94
2022-12-31T21:08:28.375Z,93.00
2022-12-31T21:12:46.810Z,93.03
2022-12-31T21:16:39.835Z,93.24
2022-12-31T21:20:32.476Z,93.08
2022-12-31T21:24:25.085Z,92.76
2022-12-31T21:28:17.833Z,92.95
2022-12-31T21:32:10.477Z,93.48
2022-12-31T21:36:05.016Z,92.71
2022-12-31T21:39:57.997Z,92.98
2022-12-31T21:43:50.662Z,93.46
2022-12-31T21:48:02.044Z,93.36
2022-12-31T21:52:13.470Z,93.51
2022-12-31T21:56:09.695Z,93.12
2022-12-31T22:00:44.397Z,93.50
2022-12-31T22:08:48.741Z,93.12
2022-12-31T22:12:41.483Z,93.60
2022-12-31T22:16:34.335Z,93.21
2022-12-31T22:20:28.912Z,93.80
2022-12-31T22:24:21.792Z,93.80
2022-12-31T22:32:27.155Z,94.52
2022-12-31T22:36:22.118Z,94.36
2022-12-31T22:40:15.610Z,94.62
2022-12-31T22:44:08.871Z,94.67
2022-12-31T22:48:01.529Z,94.96
2022-12-31T22:51:56.550Z,94.86
2022-12-31T22:55:54.825Z,94.71
2022-12-31T22:59:47.472Z,95.15
2022-12-31T23:03:42.497Z,95.20
2022-12-31T23:07:35.310Z,95.16
2022-12-31T23:11:27.964Z,94.98
2022-12-31T23:15:39.244Z,95.25
2022-12-31T23:19:51.102Z,94.77
2022-12-31T23:23:44.213Z,94.77
2022-12-31T23:27:36.899Z,95.08
2022-12-31T23:31:30.188Z,95.29
2022-12-31T23:35:22.837Z,95.26
2022-12-31T23:39:15.631Z,95.44
2022-12-31T23:43:20.765Z,95.57
2022-12-31T23:47:14.075Z,95.81
2022-12-31T23:51:07.079Z,95.88
2022-12-31T23:54:59.697Z,95.39
2022-12-31T23:58:56.351Z,95.49
